sensor_id;sensor_type;location;lat;lon;timestamp;pressure;altitude;pressure_sealevel;temperature;humidity
56831;BME280;42713;42.676;23.352;2023-02-28T00:01:22;95220.28;;;7.22;89.47
56831;BME280;42713;42.676;23.352;2023-02-28T00:03:48;95222.28;;;7.26;89.29
56831;BME280;42713;42.676;23.352;2023-02-28T00:06:14;95245.16;;;7.24;89.52
56831;BME280;42713;42.676;23.352;2023-02-28T00:08:40;95241.97;;;7.15;87.63
56831;BME280;42713;42.676;23.352;2023-02-28T00:11:11;95236.38;;;7.12;88.44
56831;BME280;42713;42.676;23.352;2023-02-28T00:13:37;95232.78;;;7.13;89.21
56831;BME280;42713;42.676;23.352;2023-02-28T00:16:06;95244.38;;;7.10;89.93
56831;BME280;42713;42.676;23.352;2023-02-28T00:18:32;95248.03;;;7.09;90.09
56831;BME280;42713;42.676;23.352;2023-02-28T00:20:58;95250.81;;;7.14;90.33
56831;BME280;42713;42.676;23.352;2023-02-28T00:23:24;95248.19;;;7.14;89.41
56831;BME280;42713;42.676;23.352;2023-02-28T00:25:50;95258.22;;;7.18;89.50
56831;BME280;42713;42.676;23.352;2023-02-28T00:28:15;95269.22;;;7.20;88.72
56831;BME280;42713;42.676;23.352;2023-02-28T00:30:40;95252.56;;;7.21;89.60
56831;BME280;42713;42.676;23.352;2023-02-28T00:33:06;95265.59;;;7.21;89.46
56831;BME280;42713;42.676;23.352;2023-02-28T00:35:31;95254.38;;;7.20;89.66
56831;BME280;42713;42.676;23.352;2023-02-28T00:37:57;95245.78;;;7.20;89.43
56831;BME280;42713;42.676;23.352;2023-02-28T00:40:23;95269.22;;;7.20;89.24
56831;BME280;42713;42.676;23.352;2023-02-28T00:42:48;95254.00;;;7.16;89.11
56831;BME280;42713;42.676;23.352;2023-02-28T00:45:14;95243.97;;;7.20;89.13
56831;BME280;42713;42.676;23.352;2023-02-28T00:47:39;95242.16;;;7.21;88.50
56831;BME280;42713;42.676;23.352;2023-02-28T00:50:05;95232.75;;;7.20;89.12
56831;BME280;42713;42.676;23.352;2023-02-28T00:52:31;95237.56;;;7.16;88.21
56831;BME280;42713;42.676;23.352;2023-02-28T00:54:56;95247.81;;;7.11;87.70
56831;BME280;42713;42.676;23.352;2023-02-28T00:57:22;95245.44;;;7.03;88.01
56831;BME280;42713;42.676;23.352;2023-02-28T00:59:48;95234.66;;;6.99;87.95
56831;BME280;42713;42.676;23.352;2023-02-28T01:02:13;95247.28;;;6.95;87.91
56831;BME280;42713;42.676;23.352;2023-02-28T01:04:39;95252.06;;;6.92;87.95
56831;BME280;42713;42.676;23.352;2023-02-28T01:07:04;95251.50;;;6.90;88.22
56831;BME280;42713;42.676;23.352;2023-02-28T01:09:30;95264.09;;;6.93;88.30
56831;BME280;42713;42.676;23.352;2023-02-28T01:11:56;95243.69;;;6.90;88.55
56831;BME280;42713;42.676;23.352;2023-02-28T01:14:21;95238.50;;;6.90;88.15
56831;BME280;42713;42.676;23.352;2023-02-28T01:16:47;95240.06;;;6.91;88.37
56831;BME280;42713;42.676;23.352;2023-02-28T01:19:13;95242.09;;;6.89;88.47
56831;BME280;42713;42.676;23.352;2023-02-28T01:21:38;95248.91;;;6.90;89.50
56831;BME280;42713;42.676;23.352;2023-02-28T01:24:04;95243.28;;;6.86;88.76
56831;BME280;42713;42.676;23.352;2023-02-28T01:26:30;95236.50;;;6.85;88.52
56831;BME280;42713;42.676;23.352;2023-02-28T01:28:56;95237.69;;;6.82;89.00
56831;BME280;42713;42.676;23.352;2023-02-28T01:31:22;95240.13;;;6.77;88.74
56831;BME280;42713;42.676;23.352;2023-02-28T01:33:48;95242.13;;;6.75;88.62
56831;BME280;42713;42.676;23.352;2023-02-28T01:36:17;95237.13;;;6.74;89.10
56831;BME280;42713;42.676;23.352;2023-02-28T01:38:43;95239.91;;;6.72;89.01
56831;BME280;42713;42.676;23.352;2023-02-28T01:41:16;95242.34;;;6.67;88.08
56831;BME280;42713;42.676;23.352;2023-02-28T01:46:07;95245.34;;;6.64;87.31
56831;BME280;42713;42.676;23.352;2023-02-28T01:48:37;95244.75;;;6.62;87.95
56831;BME280;42713;42.676;23.352;2023-02-28T01:51:13;95240.34;;;6.62;88.71
56831;BME280;42713;42.676;23.352;2023-02-28T01:53:49;95243.38;;;6.52;88.08
56831;BME280;42713;42.676;23.352;2023-02-28T01:56:20;95250.78;;;6.49;88.22
56831;BME280;42713;42.676;23.352;2023-02-28T01:58:53;95256.81;;;6.49;88.57
56831;BME280;42713;42.676;23.352;2023-02-28T02:01:21;95247.19;;;6.50;87.89
56831;BME280;42713;42.676;23.352;2023-02-28T02:03:56;95247.00;;;6.45;88.40
56831;BME280;42713;42.676;23.352;2023-02-28T02:06:25;95249.63;;;6.45;88.28
56831;BME280;42713;42.676;23.352;2023-02-28T02:08:53;95247.63;;;6.40;88.35
56831;BME280;42713;42.676;23.352;2023-02-28T02:11:20;95241.59;;;6.33;88.72
56831;BME280;42713;42.676;23.352;2023-02-28T02:14:31;95249.81;;;6.36;89.34
56831;BME280;42713;42.676;23.352;2023-02-28T02:17:19;95246.22;;;6.31;88.32
56831;BME280;42713;42.676;23.352;2023-02-28T02:22:44;95240.41;;;6.35;89.62
56831;BME280;42713;42.676;23.352;2023-02-28T02:28:22;95227.81;;;6.32;88.65
56831;BME280;42713;42.676;23.352;2023-02-28T02:36:46;95242.03;;;6.23;89.70
56831;BME280;42713;42.676;23.352;2023-02-28T02:39:26;95241.63;;;6.26;89.25
56831;BME280;42713;42.676;23.352;2023-02-28T02:41:59;95248.22;;;6.29;89.00
56831;BME280;42713;42.676;23.352;2023-02-28T02:44:47;95254.44;;;6.28;89.36
56831;BME280;42713;42.676;23.352;2023-02-28T02:47:20;95250.44;;;6.32;89.07
56831;BME280;42713;42.676;23.352;2023-02-28T02:49:50;95257.41;;;6.31;88.05
56831;BME280;42713;42.676;23.352;2023-02-28T02:52:20;95247.63;;;6.27;88.13
56831;BME280;42713;42.676;23.352;2023-02-28T02:54:48;95256.41;;;6.26;87.97
56831;BME280;42713;42.676;23.352;2023-02-28T02:57:21;95258.25;;;6.25;87.88
56831;BME280;42713;42.676;23.352;2023-02-28T02:59:49;95259.84;;;6.26;88.31
56831;BME280;42713;42.676;23.352;2023-02-28T03:02:17;95264.22;;;6.26;88.67
56831;BME280;42713;42.676;23.352;2023-02-28T03:04:51;95260.84;;;6.25;88.41
56831;BME280;42713;42.676;23.352;2023-02-28T03:07:17;95273.84;;;6.25;89.65
56831;BME280;42713;42.676;23.352;2023-02-28T03:09:51;95282.66;;;6.31;89.60
56831;BME280;42713;42.676;23.352;2023-02-28T03:12:18;95287.44;;;6.27;89.22
56831;BME280;42713;42.676;23.352;2023-02-28T03:22:41;95287.25;;;6.35;88.90
56831;BME280;42713;42.676;23.352;2023-02-28T03:30:36;95297.44;;;6.30;90.01
56831;BME280;42713;42.676;23.352;2023-02-28T03:35:42;95305.84;;;6.39;90.31
56831;BME280;42713;42.676;23.352;2023-02-28T03:38:17;95310.25;;;6.38;90.34
56831;BME280;42713;42.676;23.352;2023-02-28T03:40:50;95310.63;;;6.42;89.98
56831;BME280;42713;42.676;23.352;2023-02-28T03:43:25;95309.25;;;6.39;89.77
56831;BME280;42713;42.676;23.352;2023-02-28T03:45:54;95309.25;;;6.39;89.77
56831;BME280;42713;42.676;23.352;2023-02-28T03:48:26;95313.44;;;6.41;89.54
56831;BME280;42713;42.676;23.352;2023-02-28T03:50:55;95307.47;;;6.40;89.16
56831;BME280;42713;42.676;23.352;2023-02-28T03:55:59;95309.84;;;6.42;90.17
56831;BME280;42713;42.676;23.352;2023-02-28T03:58:44;95315.84;;;6.42;89.58
56831;BME280;42713;42.676;23.352;2023-02-28T04:01:19;95308.66;;;6.44;89.76
56831;BME280;42713;42.676;23.352;2023-02-28T04:03:46;95314.66;;;6.45;89.82
56831;BME280;42713;42.676;23.352;2023-02-28T04:06:17;95323.88;;;6.47;90.23
56831;BME280;42713;42.676;23.352;2023-02-28T04:08:43;95313.66;;;6.46;90.05
56831;BME280;42713;42.676;23.352;2023-02-28T04:11:27;95314.44;;;6.46;90.15
56831;BME280;42713;42.676;23.352;2023-02-28T04:13:55;95316.06;;;6.47;89.67
56831;BME280;42713;42.676;23.352;2023-02-28T04:16:21;95307.03;;;6.43;89.51
56831;BME280;42713;42.676;23.352;2023-02-28T04:18:46;95317.66;;;6.48;89.04
56831;BME280;42713;42.676;23.352;2023-02-28T04:21:13;95307.03;;;6.50;90.13
56831;BME280;42713;42.676;23.352;2023-02-28T04:23:38;95307.84;;;6.50;89.77
56831;BME280;42713;42.676;23.352;2023-02-28T04:26:04;95312.63;;;6.53;89.52
56831;BME280;42713;42.676;23.352;2023-02-28T04:28:31;95305.81;;;6.52;89.23
56831;BME280;42713;42.676;23.352;2023-02-28T04:31:02;95311.47;;;6.49;88.73
56831;BME280;42713;42.676;23.352;2023-02-28T04:33:30;95324.47;;;6.49;89.15
56831;BME280;42713;42.676;23.352;2023-02-28T04:36:00;95322.47;;;6.51;89.07
56831;BME280;42713;42.676;23.352;2023-02-28T04:38:28;95317.28;;;6.51;89.03
56831;BME280;42713;42.676;23.352;2023-02-28T04:40:57;95316.25;;;6.52;89.44
56831;BME280;42713;42.676;23.352;2023-02-28T04:43:22;95319.88;;;6.51;88.46
56831;BME280;42713;42.676;23.352;2023-02-28T04:45:47;95323.47;;;6.50;89.03
56831;BME280;42713;42.676;23.352;2023-02-28T04:48:13;95332.88;;;6.51;88.94
56831;BME280;42713;42.676;23.352;2023-02-28T04:50:38;95334.88;;;6.49;88.76
56831;BME280;42713;42.676;23.352;2023-02-28T04:53:04;95338.88;;;6.45;88.35
56831;BME280;42713;42.676;23.352;2023-02-28T04:55:29;95344.06;;;6.45;88.38
56831;BME280;42713;42.676;23.352;2023-02-28T04:57:55;95337.88;;;6.39;88.50
56831;BME280;42713;42.676;23.352;2023-02-28T05:00:20;95337.06;;;6.39;88.51
56831;BME280;42713;42.676;23.352;2023-02-28T05:02:46;95337.47;;;6.36;88.86
56831;BME280;42713;42.676;23.352;2023-02-28T05:05:11;95336.88;;;6.34;88.42
56831;BME280;42713;42.676;23.352;2023-02-28T05:07:44;95336.28;;;6.32;88.44
56831;BME280;42713;42.676;23.352;2023-02-28T05:10:10;95325.25;;;6.23;89.06
56831;BME280;42713;42.676;23.352;2023-02-28T05:12:35;95329.66;;;6.29;89.35
56831;BME280;42713;42.676;23.352;2023-02-28T05:15:01;95339.06;;;6.30;89.78
56831;BME280;42713;42.676;23.352;2023-02-28T05:17:27;95332.88;;;6.31;89.47
56831;BME280;42713;42.676;23.352;2023-02-28T05:19:53;95348.09;;;6.34;88.57
56831;BME280;42713;42.676;23.352;2023-02-28T05:22:18;95346.09;;;6.36;89.14
56831;BME280;42713;42.676;23.352;2023-02-28T05:24:44;95353.91;;;6.36;88.65
56831;BME280;42713;42.676;23.352;2023-02-28T05:27:09;95353.69;;;6.38;88.56
56831;BME280;42713;42.676;23.352;2023-02-28T05:29:35;95355.91;;;6.41;87.90
56831;BME280;42713;42.676;23.352;2023-02-28T05:32:08;95361.09;;;6.41;87.85
56831;BME280;42713;42.676;23.352;2023-02-28T05:34:33;95373.28;;;6.41;88.55
56831;BME280;42713;42.676;23.352;2023-02-28T05:36:58;95360.28;;;6.41;88.19
56831;BME280;42713;42.676;23.352;2023-02-28T05:39:24;95363.50;;;6.43;87.68
56831;BME280;42713;42.676;23.352;2023-02-28T05:41:49;95361.91;;;6.42;87.62
56831;BME280;42713;42.676;23.352;2023-02-28T05:44:15;95368.69;;;6.43;87.75
56831;BME280;42713;42.676;23.352;2023-02-28T05:46:40;95376.13;;;6.46;87.80
56831;BME280;42713;42.676;23.352;2023-02-28T05:49:06;95367.28;;;6.47;88.19
56831;BME280;42713;42.676;23.352;2023-02-28T05:51:31;95380.13;;;6.48;87.64
56831;BME280;42713;42.676;23.352;2023-02-28T05:54:00;95374.31;;;6.46;87.44
56831;BME280;42713;42.676;23.352;2023-02-28T05:56:27;95386.50;;;6.52;88.73
56831;BME280;42713;42.676;23.352;2023-02-28T05:58:52;95398.13;;;6.57;88.65
56831;BME280;42713;42.676;23.352;2023-02-28T06:01:34;95380.69;;;6.57;88.39
56831;BME280;42713;42.676;23.352;2023-02-28T06:04:01;95380.69;;;6.57;87.65
56831;BME280;42713;42.676;23.352;2023-02-28T06:06:28;95378.53;;;6.61;88.42
56831;BME280;42713;42.676;23.352;2023-02-28T06:08:55;95381.91;;;6.61;88.09
56831;BME280;42713;42.676;23.352;2023-02-28T06:11:20;95372.72;;;6.65;88.05
56831;BME280;42713;42.676;23.352;2023-02-28T06:13:47;95383.09;;;6.72;87.44
56831;BME280;42713;42.676;23.352;2023-02-28T06:16:12;95370.28;;;6.70;87.75
56831;BME280;42713;42.676;23.352;2023-02-28T06:18:38;95374.28;;;6.73;87.84
56831;BME280;42713;42.676;23.352;2023-02-28T06:21:04;95378.72;;;6.73;87.72
56831;BME280;42713;42.676;23.352;2023-02-28T06:23:30;95372.28;;;6.75;87.35
56831;BME280;42713;42.676;23.352;2023-02-28T06:25:55;95377.50;;;6.75;87.07
56831;BME280;42713;42.676;23.352;2023-02-28T06:28:24;95384.09;;;6.78;86.59
56831;BME280;42713;42.676;23.352;2023-02-28T06:30:51;95385.53;;;6.80;86.61
56831;BME280;42713;42.676;23.352;2023-02-28T06:33:16;95389.69;;;6.81;86.81
56831;BME280;42713;42.676;23.352;2023-02-28T06:35:47;95388.72;;;6.82;86.60
56831;BME280;42713;42.676;23.352;2023-02-28T06:38:15;95389.13;;;6.79;86.00
56831;BME280;42713;42.676;23.352;2023-02-28T06:40:40;95387.91;;;6.82;86.02
56831;BME280;42713;42.676;23.352;2023-02-28T06:43:06;95395.50;;;6.83;85.55
56831;BME280;42713;42.676;23.352;2023-02-28T06:45:32;95398.72;;;6.85;85.71
56831;BME280;42713;42.676;23.352;2023-02-28T06:47:57;95396.34;;;6.84;86.46
56831;BME280;42713;42.676;23.352;2023-02-28T06:50:23;95397.72;;;6.87;86.26
56831;BME280;42713;42.676;23.352;2023-02-28T06:52:50;95396.34;;;6.84;86.21
56831;BME280;42713;42.676;23.352;2023-02-28T06:55:19;95398.34;;;6.89;86.19
56831;BME280;42713;42.676;23.352;2023-02-28T06:57:44;95399.50;;;6.93;85.95
56831;BME280;42713;42.676;23.352;2023-02-28T07:00:10;95402.13;;;6.93;85.78
56831;BME280;42713;42.676;23.352;2023-02-28T07:02:37;95402.31;;;6.91;85.43
56831;BME280;42713;42.676;23.352;2023-02-28T07:05:05;95403.72;;;6.94;86.34
56831;BME280;42713;42.676;23.352;2023-02-28T07:07:31;95409.75;;;6.94;85.21
56831;BME280;42713;42.676;23.352;2023-02-28T07:09:57;95405.31;;;6.95;85.52
56831;BME280;42713;42.676;23.352;2023-02-28T07:12:23;95406.72;;;6.91;85.01
56831;BME280;42713;42.676;23.352;2023-02-28T07:14:48;95394.50;;;6.91;85.87
56831;BME280;42713;42.676;23.352;2023-02-28T07:17:14;95408.31;;;6.92;85.24
56831;BME280;42713;42.676;23.352;2023-02-28T07:19:40;95392.13;;;6.90;86.01
56831;BME280;42713;42.676;23.352;2023-02-28T07:22:06;95398.50;;;6.94;85.77
56831;BME280;42713;42.676;23.352;2023-02-28T07:24:32;95400.94;;;6.95;85.77
56831;BME280;42713;42.676;23.352;2023-02-28T07:26:58;95393.91;;;6.89;86.21
56831;BME280;42713;42.676;23.352;2023-02-28T07:29:25;95407.94;;;6.88;85.05
56831;BME280;42713;42.676;23.352;2023-02-28T07:31:50;95400.94;;;6.89;85.42
56831;BME280;42713;42.676;23.352;2023-02-28T07:34:19;95400.94;;;6.89;85.75
56831;BME280;42713;42.676;23.352;2023-02-28T07:36:44;95403.72;;;7.00;86.00
56831;BME280;42713;42.676;23.352;2023-02-28T07:39:11;95400.69;;;7.10;85.76
56831;BME280;42713;42.676;23.352;2023-02-28T07:41:36;95404.50;;;7.14;86.08
56831;BME280;42713;42.676;23.352;2023-02-28T07:44:11;95405.09;;;7.23;85.83
56831;BME280;42713;42.676;23.352;2023-02-28T07:46:37;95398.22;;;7.36;85.93
56831;BME280;42713;42.676;23.352;2023-02-28T07:49:03;95405.44;;;7.40;85.39
56831;BME280;42713;42.676;23.352;2023-02-28T07:51:29;95400.19;;;7.47;85.53
56831;BME280;42713;42.676;23.352;2023-02-28T07:53:55;95393.78;;;7.50;85.07
56831;BME280;42713;42.676;23.352;2023-02-28T07:56:21;95394.97;;;7.54;84.83
56831;BME280;42713;42.676;23.352;2023-02-28T07:58:46;95390.97;;;7.58;84.96
56831;BME280;42713;42.676;23.352;2023-02-28T08:01:12;95398.94;;;7.63;84.90
56831;BME280;42713;42.676;23.352;2023-02-28T08:03:39;95392.50;;;7.66;84.75
56831;BME280;42713;42.676;23.352;2023-02-28T08:06:06;95392.13;;;7.69;84.93
56831;BME280;42713;42.676;23.352;2023-02-28T08:08:32;95396.31;;;7.76;84.56
56831;BME280;42713;42.676;23.352;2023-02-28T08:10:59;95398.47;;;7.79;84.53
56831;BME280;42713;42.676;23.352;2023-02-28T08:13:25;95391.84;;;7.84;84.35
56831;BME280;42713;42.676;23.352;2023-02-28T08:15:52;95388.47;;;7.83;83.50
56831;BME280;42713;42.676;23.352;2023-02-28T08:18:19;95389.59;;;7.94;83.70
56831;BME280;42713;42.676;23.352;2023-02-28T08:20:44;95392.78;;;8.03;85.11
56831;BME280;42713;42.676;23.352;2023-02-28T08:23:10;95389.47;;;8.14;84.62
56831;BME280;42713;42.676;23.352;2023-02-28T08:25:35;95390.41;;;8.26;84.89
56831;BME280;42713;42.676;23.352;2023-02-28T08:28:01;95385.94;;;8.34;84.26
56831;BME280;42713;42.676;23.352;2023-02-28T08:30:26;95389.13;;;8.36;83.85
56831;BME280;42713;42.676;23.352;2023-02-28T08:32:52;95399.31;;;8.44;84.54
56831;BME280;42713;42.676;23.352;2023-02-28T08:35:17;95399.69;;;8.54;84.96
56831;BME280;42713;42.676;23.352;2023-02-28T08:37:43;95395.44;;;8.60;84.42
56831;BME280;42713;42.676;23.352;2023-02-28T08:40:09;95401.97;;;8.69;85.17
56831;BME280;42713;42.676;23.352;2023-02-28T08:42:36;95396.06;;;8.81;85.46
56831;BME280;42713;42.676;23.352;2023-02-28T08:45:01;95397.63;;;8.88;84.97
56831;BME280;42713;42.676;23.352;2023-02-28T08:47:27;95402.34;;;8.98;85.17
56831;BME280;42713;42.676;23.352;2023-02-28T08:49:52;95390.22;;;9.04;85.07
56831;BME280;42713;42.676;23.352;2023-02-28T08:52:18;95389.81;;;9.07;85.29
56831;BME280;42713;42.676;23.352;2023-02-28T08:54:43;95389.38;;;9.10;85.33
56831;BME280;42713;42.676;23.352;2023-02-28T08:57:08;95389.75;;;9.14;84.95
56831;BME280;42713;42.676;23.352;2023-02-28T08:59:34;95391.56;;;9.13;84.62
56831;BME280;42713;42.676;23.352;2023-02-28T09:01:59;95396.34;;;9.16;84.59
56831;BME280;42713;42.676;23.352;2023-02-28T09:04:25;95396.66;;;9.27;84.76
56831;BME280;42713;42.676;23.352;2023-02-28T09:06:50;95390.78;;;9.31;84.52
56831;BME280;42713;42.676;23.352;2023-02-28T09:09:16;95390.91;;;9.37;84.34
56831;BME280;42713;42.676;23.352;2023-02-28T09:11:41;95390.50;;;9.40;84.21
56831;BME280;42713;42.676;23.352;2023-02-28T09:14:07;95384.00;;;9.42;85.11
56831;BME280;42713;42.676;23.352;2023-02-28T09:16:34;95385.19;;;9.46;84.72
56831;BME280;42713;42.676;23.352;2023-02-28T09:19:00;95383.94;;;9.49;84.16
56831;BME280;42713;42.676;23.352;2023-02-28T09:21:27;95384.66;;;9.56;83.41
56831;BME280;42713;42.676;23.352;2023-02-28T09:23:53;95390.06;;;9.61;82.76
56831;BME280;42713;42.676;23.352;2023-02-28T09:26:22;95382.13;;;9.68;83.73
56831;BME280;42713;42.676;23.352;2023-02-28T09:28:48;95392.13;;;9.71;84.05
56831;BME280;42713;42.676;23.352;2023-02-28T09:31:19;95386.91;;;9.71;82.53
56831;BME280;42713;42.676;23.352;2023-02-28T09:33:48;95389.31;;;9.73;82.02
56831;BME280;42713;42.676;23.352;2023-02-28T09:36:13;95378.19;;;9.77;81.98
56831;BME280;42713;42.676;23.352;2023-02-28T09:38:39;95390.53;;;9.89;82.20
56831;BME280;42713;42.676;23.352;2023-02-28T09:41:17;95383.38;;;9.96;81.38
56831;BME280;42713;42.676;23.352;2023-02-28T09:43:47;95389.22;;;9.98;80.57
56831;BME280;42713;42.676;23.352;2023-02-28T09:48:47;95376.75;;;10.12;79.46
56831;BME280;42713;42.676;23.352;2023-02-28T09:54:35;95372.56;;;10.23;79.54
56831;BME280;42713;42.676;23.352;2023-02-28T09:57:35;95379.72;;;10.27;77.80
56831;BME280;42713;42.676;23.352;2023-02-28T10:00:13;95372.69;;;10.28;77.11
56831;BME280;42713;42.676;23.352;2023-02-28T10:05:41;95369.97;;;10.35;77.42
56831;BME280;42713;42.676;23.352;2023-02-28T10:08:27;95367.28;;;10.41;76.86
56831;BME280;42713;42.676;23.352;2023-02-28T10:10:57;95375.81;;;10.49;76.76
56831;BME280;42713;42.676;23.352;2023-02-28T10:18:53;95366.84;;;10.68;76.24
56831;BME280;42713;42.676;23.352;2023-02-28T10:21:27;95361.84;;;10.79;75.96
56831;BME280;42713;42.676;23.352;2023-02-28T10:24:02;95352.28;;;10.84;75.39
56831;BME280;42713;42.676;23.352;2023-02-28T10:26:28;95351.50;;;10.96;74.58
56831;BME280;42713;42.676;23.352;2023-02-28T10:28:55;95350.22;;;10.98;74.12
56831;BME280;42713;42.676;23.352;2023-02-28T10:31:20;95346.72;;;11.04;73.59
56831;BME280;42713;42.676;23.352;2023-02-28T10:33:47;95343.28;;;11.04;72.96
56831;BME280;42713;42.676;23.352;2023-02-28T10:36:15;95339.97;;;11.09;72.72
56831;BME280;42713;42.676;23.352;2023-02-28T10:38:42;95339.97;;;11.20;72.53
56831;BME280;42713;42.676;23.352;2023-02-28T10:41:11;95326.13;;;11.37;77.17
56831;BME280;42713;42.676;23.352;2023-02-28T10:43:39;95326.09;;;11.61;76.11
56831;BME280;42713;42.676;23.352;2023-02-28T10:48:38;95327.53;;;11.97;73.61
56831;BME280;42713;42.676;23.352;2023-02-28T10:51:16;95311.19;;;12.07;72.38
56831;BME280;42713;42.676;23.352;2023-02-28T10:58:53;95303.06;;;12.09;68.72
56831;BME280;42713;42.676;23.352;2023-02-28T11:03:56;95296.47;;;12.06;67.79
56831;BME280;42713;42.676;23.352;2023-02-28T11:06:26;95292.31;;;12.10;67.74
56831;BME280;42713;42.676;23.352;2023-02-28T11:08:57;95285.56;;;12.14;67.67
56831;BME280;42713;42.676;23.352;2023-02-28T11:11:26;95283.66;;;12.10;67.46
56831;BME280;42713;42.676;23.352;2023-02-28T11:13:57;95292.09;;;12.12;67.25
56831;BME280;42713;42.676;23.352;2023-02-28T11:16:35;95285.56;;;12.14;66.87
56831;BME280;42713;42.676;23.352;2023-02-28T11:19:04;95286.22;;;12.05;66.90
56831;BME280;42713;42.676;23.352;2023-02-28T11:21:37;95279.56;;;12.02;66.69
56831;BME280;42713;42.676;23.352;2023-02-28T11:24:23;95282.44;;;12.01;66.83
56831;BME280;42713;42.676;23.352;2023-02-28T11:26:50;95280.75;;;11.94;66.10
56831;BME280;42713;42.676;23.352;2023-02-28T11:29:24;95276.50;;;12.05;66.08
56831;BME280;42713;42.676;23.352;2023-02-28T11:34:37;95276.91;;;12.14;66.06
56831;BME280;42713;42.676;23.352;2023-02-28T11:37:03;95273.22;;;12.15;65.57
56831;BME280;42713;42.676;23.352;2023-02-28T11:39:32;95272.84;;;12.23;66.07
56831;BME280;42713;42.676;23.352;2023-02-28T11:48:07;95265.28;;;12.44;65.45
56831;BME280;42713;42.676;23.352;2023-02-28T11:53:10;95258.50;;;12.48;65.10
56831;BME280;42713;42.676;23.352;2023-02-28T11:55:41;95263.34;;;12.56;65.58
56831;BME280;42713;42.676;23.352;2023-02-28T12:28:27;95260.53;;;12.80;63.06
56831;BME280;42713;42.676;23.352;2023-02-28T12:31:21;95258.50;;;12.87;62.83
56831;BME280;42713;42.676;23.352;2023-02-28T12:33:57;95256.00;;;12.98;62.68
56831;BME280;42713;42.676;23.352;2023-02-28T12:36:25;95255.53;;;13.01;61.86
56831;BME280;42713;42.676;23.352;2023-02-28T12:39:36;95249.25;;;13.02;62.17
56831;BME280;42713;42.676;23.352;2023-02-28T12:41:47;95244.50;;;13.04;61.04
56831;BME280;42713;42.676;23.352;2023-02-28T12:44:35;95245.19;;;12.94;60.93
56831;BME280;42713;42.676;23.352;2023-02-28T12:47:16;95239.47;;;12.97;61.41
56831;BME280;42713;42.676;23.352;2023-02-28T12:49:52;95235.53;;;13.00;60.82
56831;BME280;42713;42.676;23.352;2023-02-28T12:52:24;95239.84;;;12.89;61.18
56831;BME280;42713;42.676;23.352;2023-02-28T12:55:02;95235.75;;;12.98;60.81
56831;BME280;42713;42.676;23.352;2023-02-28T13:00:23;95240.66;;;13.12;60.46
56831;BME280;42713;42.676;23.352;2023-02-28T13:10:53;95240.91;;;13.54;59.41
56831;BME280;42713;42.676;23.352;2023-02-28T13:13:27;95237.78;;;13.58;58.59
56831;BME280;42713;42.676;23.352;2023-02-28T13:18:36;95231.41;;;13.53;58.68
56831;BME280;42713;42.676;23.352;2023-02-28T13:21:07;95233.81;;;13.55;58.42
56831;BME280;42713;42.676;23.352;2023-02-28T13:23:41;95227.19;;;13.52;59.06
56831;BME280;42713;42.676;23.352;2023-02-28T13:34:36;95230.47;;;13.65;58.20
56831;BME280;42713;42.676;23.352;2023-02-28T13:39:58;95226.50;;;13.62;57.63
56831;BME280;42713;42.676;23.352;2023-02-28T13:42:37;95209.91;;;13.62;57.95
56831;BME280;42713;42.676;23.352;2023-02-28T13:47:44;95223.13;;;13.67;57.30
56831;BME280;42713;42.676;23.352;2023-02-28T13:53:06;95204.78;;;13.50;57.83
56831;BME280;42713;42.676;23.352;2023-02-28T14:06:28;95215.06;;;13.29;58.16
56831;BME280;42713;42.676;23.352;2023-02-28T14:09:01;95209.09;;;13.12;58.28
56831;BME280;42713;42.676;23.352;2023-02-28T14:11:34;95216.75;;;13.13;58.82
56831;BME280;42713;42.676;23.352;2023-02-28T14:14:01;95225.56;;;13.02;58.84
56831;BME280;42713;42.676;23.352;2023-02-28T14:16:44;95220.97;;;12.92;60.13
56831;BME280;42713;42.676;23.352;2023-02-28T14:19:14;95220.13;;;12.86;59.42
56831;BME280;42713;42.676;23.352;2023-02-28T14:25:04;95207.88;;;12.75;60.58
56831;BME280;42713;42.676;23.352;2023-02-28T14:33:31;95235.00;;;12.58;61.41
56831;BME280;42713;42.676;23.352;2023-02-28T14:36:10;95229.75;;;12.58;61.09
56831;BME280;42713;42.676;23.352;2023-02-28T14:38:53;95222.09;;;12.57;60.85
56831;BME280;42713;42.676;23.352;2023-02-28T14:41:23;95228.63;;;12.54;60.97
56831;BME280;42713;42.676;23.352;2023-02-28T14:43:59;95224.59;;;12.47;61.37
56831;BME280;42713;42.676;23.352;2023-02-28T14:46:55;95225.06;;;12.43;61.63
56831;BME280;42713;42.676;23.352;2023-02-28T14:49:32;95224.50;;;12.41;62.25
56831;BME280;42713;42.676;23.352;2023-02-28T14:54:31;95230.41;;;12.32;62.15
56831;BME280;42713;42.676;23.352;2023-02-28T14:56:57;95231.13;;;12.27;62.14
56831;BME280;42713;42.676;23.352;2023-02-28T14:59:34;95224.75;;;12.23;62.99
56831;BME280;42713;42.676;23.352;2023-02-28T15:02:20;95227.31;;;12.18;62.88
56831;BME280;42713;42.676;23.352;2023-02-28T15:04:56;95234.88;;;12.14;62.97
56831;BME280;42713;42.676;23.352;2023-02-28T15:07:22;95232.72;;;12.11;63.01
56831;BME280;42713;42.676;23.352;2023-02-28T15:12:39;95223.97;;;12.05;63.50
56831;BME280;42713;42.676;23.352;2023-02-28T15:15:13;95223.66;;;12.02;63.46
56831;BME280;42713;42.676;23.352;2023-02-28T15:17:39;95218.09;;;11.98;63.08
56831;BME280;42713;42.676;23.352;2023-02-28T15:20:12;95219.91;;;11.97;62.97
56831;BME280;42713;42.676;23.352;2023-02-28T15:22:39;95229.50;;;11.92;63.37
56831;BME280;42713;42.676;23.352;2023-02-28T15:25:05;95228.88;;;11.84;63.69
56831;BME280;42713;42.676;23.352;2023-02-28T15:27:33;95232.84;;;11.87;63.82
56831;BME280;42713;42.676;23.352;2023-02-28T15:30:19;95233.94;;;11.74;63.57
56831;BME280;42713;42.676;23.352;2023-02-28T15:33:24;95239.66;;;11.71;64.31
56831;BME280;42713;42.676;23.352;2023-02-28T15:35:47;95250.50;;;11.75;64.62
56831;BME280;42713;42.676;23.352;2023-02-28T15:38:26;95249.28;;;11.65;64.35
56831;BME280;42713;42.676;23.352;2023-02-28T15:40:54;95244.56;;;11.67;64.81
56831;BME280;42713;42.676;23.352;2023-02-28T15:43:32;95240.75;;;11.58;65.36